Time;durP1;ratioP1;P1;durP2;ratioP2;P2;SDS_P1;SDS_P2;PMS_P1;PMS_P2;Temp;Humidity;BMP_temperature;BMP_pressure;BME280_temperature;BME280_humidity;BME280_pressure;Samples;Min_cycle;Max_cycle;Signal;HPM_P1;HPM_P2
2022/09/22 00:01:41;;;;;;;6.60;3.40;;;;;;;12.00;66.83;99075.95;25113;1318;3056954;-74
2022/09/22 00:04:11;;;;;;;4.80;3.00;;;;;;;11.95;66.62;99078.23;25246;1312;3026611;-75
2022/09/22 00:06:42;;;;;;;3.80;3.10;;;;;;;11.74;67.35;99074.99;25195;1312;3052009;-75
2022/09/22 00:09:13;;;;;;;8.20;4.50;;;;;;;11.61;67.55;99076.58;25189;1312;3027560;-74
2022/09/22 00:11:45;;;;;;;13.90;6.80;;;;;;;11.42;68.24;99073.38;25181;1312;3026738;-76
2022/09/22 00:14:21;;;;;;;13.90;5.90;;;;;;;11.39;68.27;99073.08;25199;1313;3029347;-75
2022/09/22 00:16:59;;;;;;;11.70;7.00;;;;;;;11.33;68.66;99069.45;25171;1312;3052875;-76
2022/09/22 00:19:30;;;;;;;13.20;6.70;;;;;;;11.22;69.25;99069.86;25170;1312;3068392;-75
2022/09/22 00:22:00;;;;;;;15.80;8.30;;;;;;;11.09;69.80;99073.43;25213;1315;3026833;-75
2022/09/22 00:24:30;;;;;;;19.40;9.00;;;;;;;10.95;70.28;99071.56;25133;1315;3026502;-76
2022/09/22 00:26:59;;;;;;;14.60;8.80;;;;;;;10.86;70.72;99069.02;25139;1312;3067979;-75
2022/09/22 00:29:28;;;;;;;13.50;5.20;;;;;;;10.88;70.57;99068.52;25183;1312;3026246;-74
2022/09/22 00:31:57;;;;;;;5.60;3.00;;;;;;;11.43;69.66;99072.98;25158;1315;3051451;-77
2022/09/22 00:34:27;;;;;;;9.70;4.40;;;;;;;12.04;68.12;99074.05;25165;1315;3028218;-75
2022/09/22 00:36:56;;;;;;;9.10;4.80;;;;;;;12.10;67.33;99083.73;25186;1313;3027426;-75
2022/09/22 00:39:27;;;;;;;10.40;5.60;;;;;;;11.99;67.53;99090.28;25158;1315;3028176;-75
2022/09/22 00:41:56;;;;;;;24.70;10.40;;;;;;;11.76;67.64;99092.38;25186;1312;3068238;-74
2022/09/22 00:44:25;;;;;;;19.90;10.90;;;;;;;11.46;68.65;99092.59;25171;1313;3026387;-75
2022/09/22 00:47:18;;;;;;;23.30;12.60;;;;;;;11.26;69.38;99089.58;25174;1313;3054843;-76
2022/09/22 00:49:59;;;;;;;32.30;16.80;;;;;;;11.01;70.37;99087.77;25146;1312;3071553;-75
2022/09/22 00:52:40;;;;;;;30.50;14.50;;;;;;;10.89;70.97;99094.73;25185;1312;3051898;-75
2022/09/22 00:55:15;;;;;;;27.70;13.30;;;;;;;10.85;70.81;99091.87;25178;1316;3052481;-74
2022/09/22 00:57:45;;;;;;;28.00;15.10;;;;;;;10.76;71.18;99097.18;25185;1312;3054198;-76
2022/09/22 01:00:14;;;;;;;26.80;15.10;;;;;;;10.70;71.62;99101.10;25178;1316;3026875;-73
2022/09/22 01:02:49;;;;;;;19.30;8.50;;;;;;;10.64;71.94;99102.92;25209;1312;3027404;-76
2022/09/22 01:05:18;;;;;;;19.10;7.90;;;;;;;11.13;70.82;99105.05;25178;1313;3052631;-74
2022/09/22 01:07:48;;;;;;;17.80;8.80;;;;;;;11.64;68.80;99105.21;25189;1316;3026471;-75
2022/09/22 01:10:17;;;;;;;12.40;6.60;;;;;;;11.69;68.26;99106.06;25136;1315;3026520;-76
2022/09/22 01:13:07;;;;;;;15.20;7.40;;;;;;;11.48;68.73;99104.21;25225;1313;3054992;-75
2022/09/22 01:15:44;;;;;;;10.50;6.60;;;;;;;11.33;69.16;99106.64;25188;1312;3054192;-76
2022/09/22 01:18:22;;;;;;;9.70;4.80;;;;;;;11.19;69.59;99101.81;25231;1312;3071606;-76
2022/09/22 01:21:14;;;;;;;9.30;5.50;;;;;;;11.15;69.89;99101.91;25195;1313;3049470;-76
2022/09/22 01:24:08;;;;;;;14.80;4.80;;;;;;;11.09;70.40;99106.33;25202;1313;3054802;-76
2022/09/22 01:27:02;;;;;;;6.70;4.60;;;;;;;11.11;70.05;99110.27;25221;1313;3055645;-76
2022/09/22 01:29:52;;;;;;;14.10;5.90;;;;;;;11.08;70.25;99112.02;25192;1312;3059487;-74
2022/09/22 01:32:31;;;;;;;10.60;6.90;;;;;;;11.04;69.97;99110.20;25235;1313;3050527;-76
2022/09/22 01:35:05;;;;;;;17.50;8.70;;;;;;;10.94;69.95;99117.73;25195;1316;3055959;-74
2022/09/22 01:37:39;;;;;;;12.70;7.90;;;;;;;10.80;70.32;99121.42;25155;1313;3054268;-74
2022/09/22 01:40:13;;;;;;;11.30;5.30;;;;;;;10.76;70.29;99120.65;25181;1313;3026823;-75
2022/09/22 01:42:50;;;;;;;9.90;5.00;;;;;;;11.38;69.82;99122.25;25183;1313;3048548;-75
2022/09/22 01:45:24;;;;;;;14.50;6.70;;;;;;;11.97;67.74;99123.78;25238;1313;3051555;-75
2022/09/22 01:47:57;;;;;;;13.50;7.50;;;;;;;12.01;67.24;99127.33;25226;1312;3054740;-73
2022/09/22 01:50:29;;;;;;;8.70;4.80;;;;;;;11.70;66.99;99125.81;25216;1313;3026873;-73
2022/09/22 01:53:02;;;;;;;7.70;5.30;;;;;;;11.51;68.10;99124.50;25250;1314;3027110;-73
2022/09/22 01:55:36;;;;;;;7.70;4.70;;;;;;;11.34;68.12;99123.58;25172;1316;3027523;-73
2022/09/22 01:58:10;;;;;;;9.80;5.60;;;;;;;11.18;68.38;99118.86;25225;1313;3052306;-74
2022/09/22 02:00:43;;;;;;;7.30;4.60;;;;;;;11.01;68.54;99120.95;25220;1313;3067867;-74
2022/09/22 02:03:48;;;;;;;9.20;5.20;;;;;;;10.83;68.94;99122.80;25185;1312;3026757;-74
2022/09/22 02:06:22;;;;;;;7.40;4.70;;;;;;;10.64;69.39;99122.66;25159;1312;3052716;-75
2022/09/22 02:08:57;;;;;;;10.40;5.40;;;;;;;10.53;69.92;99122.16;25249;1313;3053013;-74
2022/09/22 02:11:26;;;;;;;9.30;5.80;;;;;;;10.38;70.42;99129.44;25246;1313;3057205;-74
2022/09/22 02:13:55;;;;;;;10.70;4.90;;;;;;;10.22;71.16;99132.55;25170;1312;3026450;-74
2022/09/22 02:16:26;;;;;;;13.90;5.90;;;;;;;10.15;71.30;99134.07;25177;1313;3054813;-74
2022/09/22 02:19:15;;;;;;;5.50;3.30;;;;;;;10.04;71.63;99128.27;25210;1313;3026193;-74
2022/09/22 02:21:45;;;;;;;12.10;4.30;;;;;;;10.61;70.31;99130.20;25178;1312;3054200;-75
2022/09/22 02:24:44;;;;;;;11.40;4.90;;;;;;;10.86;69.01;99128.08;25243;1312;3026707;-74
2022/09/22 02:27:14;;;;;;;12.40;5.10;;;;;;;10.58;69.53;99128.86;25149;1315;3054893;-75
2022/09/22 02:29:46;;;;;;;16.10;5.80;;;;;;;10.53;70.11;99131.27;25203;1312;3026593;-73
2022/09/22 02:32:15;;;;;;;10.50;5.10;;;;;;;10.36;70.15;99126.23;25196;1313;3026665;-76
2022/09/22 02:34:44;;;;;;;9.80;5.40;;;;;;;10.11;70.56;99129.58;25170;1315;3026195;-72
2022/09/22 02:37:25;;;;;;;17.40;6.40;;;;;;;9.84;71.39;99131.45;25142;1313;3028720;-75
2022/09/22 02:40:05;;;;;;;12.80;6.00;;;;;;;9.51;73.34;99136.66;25192;1315;3056867;-75
2022/09/22 02:42:51;;;;;;;10.20;5.30;;;;;;;9.51;72.89;99134.69;25185;1315;3049700;-73
2022/09/22 02:45:38;;;;;;;10.90;5.20;;;;;;;9.58;71.91;99137.29;25210;1312;3052999;-75
2022/09/22 02:48:10;;;;;;;7.90;4.20;;;;;;;9.61;72.10;99142.67;25172;1313;3054250;-75
2022/09/22 02:50:40;;;;;;;6.50;3.10;;;;;;;10.06;71.46;99141.41;25214;1313;3029395;-76
2022/09/22 02:53:14;;;;;;;10.40;4.20;;;;;;;10.61;70.41;99141.08;25154;1313;3026873;-75
2022/09/22 02:55:43;;;;;;;8.30;5.10;;;;;;;10.61;69.30;99138.31;25222;1312;3050490;-75
2022/09/22 02:58:13;;;;;;;12.40;5.70;;;;;;;10.14;70.44;99136.08;25181;1313;3026551;-75
2022/09/22 03:00:43;;;;;;;11.00;5.50;;;;;;;9.95;71.33;99137.73;25205;1312;3056190;-75
2022/09/22 03:03:12;;;;;;;10.40;5.30;;;;;;;9.74;71.58;99138.38;25204;1312;3026578;-76
2022/09/22 03:05:41;;;;;;;10.20;5.20;;;;;;;9.50;72.26;99138.45;25167;1313;3027106;-75
2022/09/22 03:08:11;;;;;;;10.80;5.50;;;;;;;9.35;72.88;99140.42;25197;1312;3055405;-75
2022/09/22 03:10:40;;;;;;;15.50;5.50;;;;;;;9.10;74.08;99136.34;25196;1312;3029586;-76
2022/09/22 03:13:09;;;;;;;8.40;3.60;;;;;;;9.09;73.82;99131.30;25197;1315;3047675;-76
2022/09/22 03:15:38;;;;;;;7.20;4.00;;;;;;;9.65;73.80;99129.63;25224;1313;3026621;-76
2022/09/22 03:18:07;;;;;;;8.60;4.80;;;;;;;10.21;72.36;99123.50;25167;1313;3055848;-78
2022/09/22 03:20:36;;;;;;;13.50;5.70;;;;;;;10.18;71.91;99119.36;25211;1312;3025981;-77
2022/09/22 03:23:06;;;;;;;13.10;6.50;;;;;;;10.08;72.74;99119.12;25193;1313;3052620;-77
2022/09/22 03:25:35;;;;;;;23.90;10.50;;;;;;;10.00;72.99;99116.45;25186;1313;3028764;-77
2022/09/22 03:28:04;;;;;;;35.30;13.20;;;;;;;10.02;72.30;99120.55;25209;1315;3052090;-69
2022/09/22 03:30:36;;;;;;;31.20;13.50;;;;;;;9.89;74.30;99118.05;25187;1312;3026610;-70
2022/09/22 03:33:08;;;;;;;32.20;11.60;;;;;;;9.82;76.19;99114.41;25225;1312;3050183;-73
2022/09/22 03:35:38;;;;;;;38.80;14.10;;;;;;;10.39;76.63;99115.92;25173;1313;3026867;-72
2022/09/22 03:38:07;;;;;;;48.10;18.10;;;;;;;10.96;75.12;99114.77;25162;1312;3026622;-70
2022/09/22 03:40:36;;;;;;;40.30;17.10;;;;;;;11.07;74.61;99114.36;25234;1312;3050993;-73
2022/09/22 03:43:05;;;;;;;54.70;22.30;;;;;;;10.95;75.18;99114.33;25194;1312;3028010;-69
2022/09/22 03:45:35;;;;;;;61.50;24.60;;;;;;;10.78;75.54;99117.70;25137;1315;3070878;-74
2022/09/22 03:48:04;;;;;;;77.10;29.70;;;;;;;10.73;75.39;99126.26;25241;1313;3026997;-76
2022/09/22 03:50:33;;;;;;;55.50;22.70;;;;;;;10.66;75.13;99123.78;25176;1312;3049720;-73
2022/09/22 03:53:01;;;;;;;72.90;30.10;;;;;;;10.61;75.20;99125.70;25173;1312;3028576;-71
2022/09/22 03:55:31;;;;;;;88.00;29.40;;;;;;;10.59;75.34;99126.67;25168;1312;3051868;-70
2022/09/22 03:58:02;;;;;;;105.40;32.00;;;;;;;11.16;73.99;99124.79;25180;1312;3026626;-74
2022/09/22 04:00:31;;;;;;;99.40;33.60;;;;;;;11.76;72.49;99130.81;25145;1312;3027739;-74
2022/09/22 04:03:00;;;;;;;94.10;35.20;;;;;;;11.87;72.04;99125.61;25207;1314;3026512;-73
2022/09/22 04:05:29;;;;;;;85.40;29.80;;;;;;;11.80;71.93;99122.83;25138;1315;3052986;-72
2022/09/22 04:07:59;;;;;;;48.60;19.00;;;;;;;11.66;71.72;99120.81;25159;1313;3026584;-73
2022/09/22 04:10:28;;;;;;;41.30;15.30;;;;;;;11.47;71.63;99122.48;25205;1312;3026436;-76
2022/09/22 04:12:58;;;;;;;31.90;12.70;;;;;;;11.36;71.45;99120.08;25203;1313;3054289;-74
2022/09/22 04:15:27;;;;;;;21.40;8.60;;;;;;;11.22;70.84;99119.52;25246;1312;3028794;-75
2022/09/22 04:17:56;;;;;;;19.80;8.70;;;;;;;11.07;70.49;99125.92;25230;1312;3030044;-73
2022/09/22 04:20:26;;;;;;;14.60;8.10;;;;;;;10.89;71.00;99131.68;25203;1313;3055619;-76
2022/09/22 04:22:55;;;;;;;10.70;4.90;;;;;;;10.80;72.59;99127.77;25208;1312;3026794;-74
2022/09/22 04:25:24;;;;;;;12.60;5.00;;;;;;;11.35;72.32;99131.20;25294;1312;3026689;-76
2022/09/22 04:27:53;;;;;;;10.50;5.60;;;;;;;11.90;70.80;99133.52;25188;1312;3026546;-76
2022/09/22 04:30:23;;;;;;;13.70;6.20;;;;;;;12.05;70.41;99131.62;25137;1312;3070740;-76
2022/09/22 04:32:52;;;;;;;11.70;5.80;;;;;;;11.91;70.07;99137.68;25275;1312;3027491;-76
2022/09/22 04:35:21;;;;;;;12.60;6.20;;;;;;;11.72;71.02;99134.65;25175;1312;3053636;-75
2022/09/22 04:37:51;;;;;;;14.90;6.80;;;;;;;11.53;71.63;99139.44;25240;1312;3026558;-76
2022/09/22 04:40:21;;;;;;;14.90;7.50;;;;;;;11.40;71.95;99138.77;25295;1312;3052232;-76
2022/09/22 04:42:50;;;;;;;13.60;7.20;;;;;;;11.32;72.13;99151.57;25362;1310;3026592;-76
2022/09/22 04:45:19;;;;;;;16.90;7.80;;;;;;;11.25;72.57;99156.43;25277;1310;3026166;-76
2022/09/22 04:47:50;;;;;;;11.00;5.10;;;;;;;11.13;73.57;99152.16;25224;1313;3027393;-77
2022/09/22 04:50:20;;;;;;;9.30;5.60;;;;;;;11.66;73.02;99155.74;25326;1313;3050937;-75
2022/09/22 04:52:52;;;;;;;15.60;6.80;;;;;;;12.19;71.33;99157.65;25443;1313;3026463;-76
2022/09/22 04:55:22;;;;;;;20.20;8.20;;;;;;;12.30;70.66;99158.45;25408;1313;3026792;-77
2022/09/22 04:57:52;;;;;;;17.60;9.80;;;;;;;12.21;70.78;99162.21;25209;1313;3026648;-78
2022/09/22 05:00:23;;;;;;;19.10;10.50;;;;;;;12.10;71.13;99159.13;25215;1313;3026861;-75
2022/09/22 05:02:52;;;;;;;27.00;12.00;;;;;;;11.92;71.48;99156.36;25238;1313;3029232;-77
2022/09/22 05:05:25;;;;;;;25.20;13.40;;;;;;;11.81;71.75;99156.47;25190;1312;3026428;-77
2022/09/22 05:07:54;;;;;;;39.90;18.00;;;;;;;11.67;72.41;99154.09;25210;1312;3051839;-77
2022/09/22 05:10:24;;;;;;;28.90;13.10;;;;;;;11.46;73.40;99155.39;24608;1310;4201738;-76
2022/09/22 05:12:53;;;;;;;19.40;8.70;;;;;;;11.45;73.83;99154.56;25310;1313;3051412;-77
2022/09/22 05:15:22;;;;;;;19.30;8.20;;;;;;;12.01;72.68;99153.09;25272;1313;3026302;-77
2022/09/22 05:17:52;;;;;;;21.20;10.40;;;;;;;12.54;70.91;99147.91;25265;1310;3048574;-77
2022/09/22 05:20:21;;;;;;;23.00;9.80;;;;;;;12.67;70.52;99147.31;25249;1312;3028428;-75
2022/09/22 05:22:51;;;;;;;21.30;9.70;;;;;;;12.64;70.40;99152.85;25229;1313;3026768;-76
2022/09/22 05:25:21;;;;;;;23.30;10.70;;;;;;;12.58;70.38;99154.96;25203;1313;3047821;-76
2022/09/22 05:27:52;;;;;;;21.80;10.50;;;;;;;12.43;70.78;99157.52;25231;1312;3027019;-76
2022/09/22 05:30:22;;;;;;;23.10;11.30;;;;;;;12.34;71.16;99165.91;25191;1312;3070374;-76
2022/09/22 05:32:52;;;;;;;23.10;10.40;;;;;;;12.32;71.04;99168.33;25209;1312;3026264;-75
2022/09/22 05:35:22;;;;;;;21.80;10.90;;;;;;;12.30;71.44;99168.30;25195;1312;3026697;-76
2022/09/22 05:37:52;;;;;;;24.20;10.30;;;;;;;12.34;71.10;99169.75;25212;1312;3068573;-77
2022/09/22 05:40:22;;;;;;;15.10;6.90;;;;;;;12.38;70.94;99173.83;25167;1313;3027370;-76
2022/09/22 05:42:52;;;;;;;17.30;6.80;;;;;;;13.06;70.19;99171.44;25190;1312;3051146;-77
2022/09/22 05:45:21;;;;;;;21.50;9.20;;;;;;;13.78;68.24;99176.70;25201;1315;3026988;-77
2022/09/22 05:47:50;;;;;;;28.00;9.20;;;;;;;13.98;67.07;99177.48;25225;1311;3026630;-74
2022/09/22 05:50:20;;;;;;;21.40;9.90;;;;;;;13.98;66.80;99179.17;25194;1312;3051019;-70
2022/09/22 05:52:49;;;;;;;19.90;10.00;;;;;;;13.92;66.53;99176.65;25142;1312;3026705;-75
2022/09/22 05:55:18;;;;;;;17.40;10.00;;;;;;;13.90;66.59;99174.89;25261;1313;3026850;-74
2022/09/22 05:57:51;;;;;;;19.30;10.10;;;;;;;13.86;66.49;99173.95;25165;1312;3054516;-74
2022/09/22 06:00:23;;;;;;;20.90;9.70;;;;;;;13.82;66.62;99174.09;25181;1312;3068263;-74
2022/09/22 06:02:53;;;;;;;20.60;10.30;;;;;;;13.65;67.60;99172.13;25257;1312;3027331;-71
2022/09/22 06:05:22;;;;;;;17.00;8.80;;;;;;;13.53;67.66;99171.41;25286;1312;3051884;-73
2022/09/22 06:08:02;;;;;;;21.60;9.30;;;;;;;13.54;67.60;99167.30;25293;1312;3027382;-75
2022/09/22 06:10:33;;;;;;;19.40;9.20;;;;;;;13.56;67.71;99169.80;25208;1312;3049007;-73
2022/09/22 06:13:03;;;;;;;16.30;9.60;;;;;;;13.60;67.75;99170.69;25218;1312;3028749;-76
2022/09/22 06:15:34;;;;;;;18.30;9.90;;;;;;;13.65;67.52;99173.83;25243;1312;3027589;-74
2022/09/22 06:18:06;;;;;;;17.20;10.30;;;;;;;13.70;67.36;99173.11;25262;1309;3028994;-72
2022/09/22 06:20:36;;;;;;;16.50;10.80;;;;;;;13.73;67.23;99174.28;25185;1312;3027533;-74
2022/09/22 06:23:05;;;;;;;17.70;10.40;;;;;;;13.79;67.01;99177.83;25150;1312;3026347;-69
2022/09/22 06:25:35;;;;;;;19.20;10.80;;;;;;;13.95;66.49;99176.80;25247;1312;3026986;-71
2022/09/22 06:28:05;;;;;;;19.50;10.70;;;;;;;14.06;66.33;99178.41;25192;1310;3026051;-70
2022/09/22 06:30:35;;;;;;;21.30;10.70;;;;;;;14.07;66.22;99176.00;25219;1312;3052512;-74
2022/09/22 06:33:06;;;;;;;16.60;9.70;;;;;;;13.97;64.65;99172.61;25269;1310;3026452;-72
2022/09/22 06:35:39;;;;;;;14.50;8.50;;;;;;;14.05;64.65;99171.92;25263;1310;3028014;-75
2022/09/22 06:38:09;;;;;;;15.50;7.70;;;;;;;14.12;63.82;99173.69;25213;1312;3028882;-76
2022/09/22 06:40:38;;;;;;;15.60;8.00;;;;;;;14.29;62.65;99168.81;25243;1312;3027799;-77
2022/09/22 06:43:11;;;;;;;18.00;9.40;;;;;;;14.39;62.15;99169.42;25237;1312;3026844;-77
2022/09/22 06:45:45;;;;;;;15.40;8.70;;;;;;;14.56;62.46;99169.27;25295;1310;3049017;-79
2022/09/22 06:48:14;;;;;;;26.10;12.40;;;;;;;14.66;62.32;99170.05;25266;1312;3053859;-76
2022/09/22 06:50:47;;;;;;;32.80;14.00;;;;;;;14.70;63.18;99171.73;25216;1312;3026484;-74
2022/09/22 06:53:17;;;;;;;37.70;19.00;;;;;;;14.78;63.24;99163.61;25256;1310;3051456;-76
2022/09/22 06:55:47;;;;;;;41.50;21.20;;;;;;;14.69;63.83;99162.27;25257;1313;3026119;-74
2022/09/22 06:58:17;;;;;;;49.60;23.70;;;;;;;14.55;64.87;99164.73;25193;1313;3027180;-74
2022/09/22 07:00:46;;;;;;;47.90;24.00;;;;;;;14.38;65.48;99161.00;25203;1313;3027867;-74
2022/09/22 07:03:21;;;;;;;59.60;27.10;;;;;;;14.19;66.20;99165.73;25224;1313;3055073;-76
2022/09/22 07:06:00;;;;;;;52.10;24.90;;;;;;;13.95;67.35;99169.39;25231;1313;3026984;-73
2022/09/22 07:08:30;;;;;;;55.60;26.50;;;;;;;13.92;67.36;99171.92;25168;1313;3057143;-76
2022/09/22 07:11:02;;;;;;;55.90;26.50;;;;;;;13.92;67.24;99172.23;25159;1313;3026573;-76
2022/09/22 07:13:38;;;;;;;62.70;29.30;;;;;;;13.83;67.10;99178.73;25312;1313;3052872;-75
2022/09/22 07:16:16;;;;;;;61.90;30.30;;;;;;;13.73;68.09;99177.80;25216;1313;3054194;-77
2022/09/22 07:18:47;;;;;;;72.10;32.10;;;;;;;13.78;67.92;99177.98;25178;1313;3028629;-76
2022/09/22 07:21:19;;;;;;;67.60;32.60;;;;;;;13.82;67.32;99177.95;25246;1312;3026885;-76
2022/09/22 07:23:56;;;;;;;64.70;31.60;;;;;;;13.72;68.03;99176.83;25246;1312;3052554;-76
2022/09/22 07:26:31;;;;;;;61.60;31.70;;;;;;;13.77;67.68;99178.35;25078;1318;3026759;-74
2022/09/22 07:29:02;;;;;;;63.50;27.90;;;;;;;13.88;67.55;99179.66;25248;1313;3056302;-76
2022/09/22 07:31:33;;;;;;;53.00;25.50;;;;;;;13.96;67.20;99183.45;25195;1313;3026842;-78
2022/09/22 07:34:03;;;;;;;47.80;24.80;;;;;;;13.88;67.61;99183.89;25249;1313;3026807;-78
2022/09/22 07:36:33;;;;;;;46.40;24.10;;;;;;;13.86;67.58;99188.09;25278;1313;3026314;-77
2022/09/22 07:39:06;;;;;;;42.80;24.00;;;;;;;13.83;67.61;99184.27;25279;1313;3027192;-75
2022/09/22 07:41:40;;;;;;;46.70;24.50;;;;;;;13.87;67.52;99182.69;25253;1313;3049049;-76
2022/09/22 07:47:01;;;;;;;43.60;15.00;;;;;;;13.96;67.71;99177.89;25211;1313;3055693;-76
2022/09/22 07:49:30;;;;;;;31.60;14.80;;;;;;;14.88;66.26;99175.98;25210;1313;3026459;-75
2022/09/22 07:51:59;;;;;;;29.50;18.10;;;;;;;15.77;62.85;99174.52;25234;1312;3026639;-75
2022/09/22 07:54:28;;;;;;;28.30;16.10;;;;;;;16.01;61.23;99175.63;25249;1315;3054491;-76
2022/09/22 07:56:57;;;;;;;31.70;16.40;;;;;;;16.18;60.67;99169.54;25256;1313;3026962;-78
2022/09/22 07:59:26;;;;;;;28.40;15.40;;;;;;;15.96;59.98;99170.08;25214;1312;3054588;-77
2022/09/22 08:01:56;;;;;;;21.90;13.30;;;;;;;15.52;60.58;99164.67;25184;1313;3026827;-76
2022/09/22 08:04:25;;;;;;;24.70;14.80;;;;;;;15.12;61.87;99160.98;25212;1313;3052598;-75
2022/09/22 08:06:55;;;;;;;27.50;14.50;;;;;;;15.04;62.28;99161.30;25255;1313;3026457;-75
2022/09/22 08:09:24;;;;;;;27.60;15.40;;;;;;;14.84;62.68;99159.60;25265;1313;3028886;-70
2022/09/22 08:11:54;;;;;;;24.30;14.20;;;;;;;14.57;64.34;99162.47;25258;1312;3026607;-76
2022/09/22 08:14:24;;;;;;;22.10;14.20;;;;;;;14.55;63.44;99158.02;25180;1313;3052110;-76
2022/09/22 08:16:53;;;;;;;25.60;16.70;;;;;;;14.52;63.99;99159.20;25191;1315;3028646;-77
2022/09/22 08:19:22;;;;;;;22.70;15.20;;;;;;;14.56;63.60;99153.62;25248;1312;3026815;-78
2022/09/22 08:21:52;;;;;;;21.30;15.30;;;;;;;14.52;63.86;99147.38;25201;1313;3051664;-78
2022/09/22 08:24:22;;;;;;;21.70;14.90;;;;;;;14.73;62.97;99141.61;25253;1313;3029096;-76
2022/09/22 08:26:54;;;;;;;28.70;16.30;;;;;;;14.77;62.76;99144.87;25189;1313;3026281;-76
2022/09/22 08:29:23;;;;;;;26.50;16.10;;;;;;;14.53;63.66;99150.45;25213;1313;3028014;-75
2022/09/22 08:31:52;;;;;;;33.50;17.40;;;;;;;14.40;64.08;99147.52;25276;1313;3027777;-76
2022/09/22 08:34:24;;;;;;;31.70;18.70;;;;;;;14.46;64.52;99145.54;25261;1312;3058061;-76
2022/09/22 08:36:54;;;;;;;32.90;19.80;;;;;;;14.41;64.39;99144.71;25166;1315;3026449;-77
2022/09/22 08:39:23;;;;;;;29.80;19.40;;;;;;;14.40;64.02;99140.39;25220;1313;3027523;-76
2022/09/22 08:42:13;;;;;;;27.10;17.50;;;;;;;14.39;63.33;99134.02;25293;1311;3026641;-77
2022/09/22 08:45:15;;;;;;;25.40;14.90;;;;;;;14.43;61.69;99132.46;25248;1313;3069470;-77
2022/09/22 08:53:31;;;;;;;12.70;7.20;;;;;;;14.70;58.80;99133.71;25172;1312;3051578;-77
2022/09/22 08:56:23;;;;;;;13.60;7.60;;;;;;;14.55;57.58;99128.86;25192;1313;3026901;-75
2022/09/22 08:58:58;;;;;;;13.50;8.10;;;;;;;14.68;58.56;99130.60;25232;1315;3050166;-76
2022/09/22 09:01:53;;;;;;;20.30;11.10;;;;;;;14.82;57.75;99132.05;25338;1315;3055785;-74
2022/09/22 09:05:02;;;;;;;23.40;12.30;;;;;;;14.75;59.60;99135.14;25150;1315;3054357;-76
2022/09/22 09:07:57;;;;;;;11.30;6.80;;;;;;;14.65;57.70;99134.86;25201;1315;3068762;-68
2022/09/22 09:10:46;;;;;;;19.40;9.40;;;;;;;14.56;58.10;99135.80;25178;1315;3050140;-73
2022/09/22 09:13:52;;;;;;;21.40;11.60;;;;;;;14.85;59.03;99130.64;25218;1315;3052255;-74
2022/09/22 09:16:21;;;;;;;17.30;10.50;;;;;;;15.04;58.12;99125.86;25212;1315;3054647;-73
2022/09/22 09:19:20;;;;;;;19.60;10.90;;;;;;;15.01;58.72;99128.00;25185;1314;3026806;-77
2022/09/22 09:21:52;;;;;;;17.40;10.50;;;;;;;15.04;58.24;99127.60;25196;1315;3050081;-74
2022/09/22 09:24:26;;;;;;;16.10;8.50;;;;;;;14.76;57.98;99130.09;25196;1315;3026461;-74
2022/09/22 09:26:57;;;;;;;14.00;9.00;;;;;;;14.86;57.97;99127.20;25175;1315;3049965;-78
2022/09/22 09:29:28;;;;;;;13.60;7.50;;;;;;;14.95;57.86;99131.15;25188;1315;3030484;-72
2022/09/22 09:31:57;;;;;;;11.40;8.30;;;;;;;15.04;58.06;99125.29;25229;1315;3026116;-78
2022/09/22 09:34:27;;;;;;;11.90;6.60;;;;;;;15.25;57.60;99122.64;25214;1315;3026872;-75
2022/09/22 09:37:07;;;;;;;13.30;6.50;;;;;;;15.34;57.26;99131.91;25225;1315;3069033;-77
2022/09/22 09:39:36;;;;;;;12.90;6.40;;;;;;;15.38;56.71;99133.71;25193;1315;3049617;-73
2022/09/22 09:42:16;;;;;;;5.40;4.00;;;;;;;15.33;56.32;99137.84;25167;1315;3029702;-72
2022/09/22 09:44:46;;;;;;;6.40;4.30;;;;;;;15.42;55.36;99145.41;25249;1313;3052467;-74
2022/09/22 09:47:40;;;;;;;8.80;5.00;;;;;;;15.65;55.42;99150.98;25244;1315;3026907;-73
2022/09/22 09:50:10;;;;;;;5.90;4.50;;;;;;;15.76;55.43;99152.02;25183;1315;3055514;-73
2022/09/22 09:52:38;;;;;;;7.40;4.10;;;;;;;15.89;55.26;99153.73;25237;1313;3026918;-75
2022/09/22 09:55:27;;;;;;;11.60;4.60;;;;;;;15.91;54.24;99155.16;25205;1312;3026517;-75
2022/09/22 09:58:08;;;;;;;6.10;4.20;;;;;;;15.98;54.19;99151.13;25177;1315;3068702;-74
2022/09/22 10:01:08;;;;;;;7.40;3.90;;;;;;;16.06;54.33;99151.33;25181;1313;3049216;-75
2022/09/22 10:03:42;;;;;;;6.20;4.00;;;;;;;16.19;53.56;99146.83;25217;1315;3052615;-72
2022/09/22 10:06:35;;;;;;;7.30;3.50;;;;;;;16.41;52.96;99141.33;25201;1312;3053785;-73
2022/09/22 10:09:04;;;;;;;5.80;3.00;;;;;;;16.52;51.57;99144.43;25208;1312;3027358;-71
2022/09/22 10:11:35;;;;;;;6.40;3.70;;;;;;;16.43;52.01;99145.60;25204;1312;3051443;-73
2022/09/22 10:14:04;;;;;;;4.50;3.20;;;;;;;16.55;51.56;99140.21;25248;1312;3026860;-74
2022/09/22 10:16:35;;;;;;;5.00;2.90;;;;;;;16.67;51.16;99130.70;25265;1315;3049374;-72
2022/09/22 10:19:28;;;;;;;3.60;2.60;;;;;;;16.89;50.94;99126.76;25234;1312;3026660;-75
2022/09/22 10:22:16;;;;;;;7.80;3.00;;;;;;;17.12;49.79;99126.79;25257;1313;3069171;-76
2022/09/22 10:24:58;;;;;;;8.20;2.60;;;;;;;17.16;49.29;99124.27;25389;1312;3049007;-74
2022/09/22 10:27:29;;;;;;;4.10;2.40;;;;;;;17.37;48.18;99131.52;25174;1312;3051641;-73
2022/09/22 10:30:12;;;;;;;4.50;2.70;;;;;;;17.56;47.78;99132.76;25160;1313;3026199;-76
2022/09/22 10:33:13;;;;;;;7.20;3.50;;;;;;;17.64;48.21;99136.44;25168;1313;3056619;-75
2022/09/22 10:35:52;;;;;;;3.30;2.70;;;;;;;17.77;48.32;99134.61;25166;1315;3050527;-72
2022/09/22 10:38:27;;;;;;;5.40;2.60;;;;;;;17.93;46.98;99132.79;25202;1315;3052923;-72
2022/09/22 10:41:11;;;;;;;5.20;2.90;;;;;;;18.19;46.58;99126.84;25251;1313;3026371;-72
2022/09/22 10:43:45;;;;;;;;;;;;;;;18.33;45.86;99113.88;25139;1315;3069851;-72
2022/09/22 10:46:37;;;;;;;8.70;2.90;;;;;;;18.40;46.24;99120.80;25216;1313;3049142;-74
2022/09/22 10:49:27;;;;;;;4.60;3.00;;;;;;;18.19;45.54;99129.77;25236;1313;3052114;-72
2022/09/22 10:52:06;;;;;;;4.40;2.80;;;;;;;18.30;46.22;99125.69;25206;1312;3054720;-77
2022/09/22 10:55:00;;;;;;;3.90;2.90;;;;;;;18.31;45.77;99122.55;25218;1314;3055776;-74
2022/09/22 10:58:10;;;;;;;4.80;3.00;;;;;;;18.40;45.42;99113.13;25177;1313;3051671;-74
2022/09/22 11:01:41;;;;;;;4.00;3.10;;;;;;;18.21;46.03;99103.54;25234;1312;3053253;-75
2022/09/22 11:04:26;;;;;;;7.80;3.30;;;;;;;18.21;46.75;99100.50;25291;1312;3051746;-72
2022/09/22 11:13:44;;;;;;;9.70;5.00;;;;;;;17.99;47.64;99099.55;25179;1313;3052751;-69
2022/09/22 11:16:26;;;;;;;4.10;2.90;;;;;;;17.94;47.30;99100.42;25218;1313;3055559;-70
2022/09/22 11:19:00;;;;;;;7.20;3.50;;;;;;;18.06;46.66;99095.53;25221;1312;3057644;-71
2022/09/22 11:21:43;;;;;;;4.80;3.20;;;;;;;18.16;45.89;99087.90;25178;1316;3051787;-72
2022/09/22 11:24:22;;;;;;;6.70;4.10;;;;;;;18.26;45.78;99090.55;25260;1312;3052926;-71
2022/09/22 11:26:53;;;;;;;8.50;3.80;;;;;;;18.21;46.08;99086.79;25203;1312;3051765;-72
2022/09/22 11:29:28;;;;;;;6.70;3.00;;;;;;;18.09;46.21;99085.50;25222;1312;3026691;-70
2022/09/22 11:32:24;;;;;;;4.10;3.00;;;;;;;18.20;46.17;99082.35;25216;1312;3051799;-70
2022/09/22 11:35:57;;;;;;;4.90;2.60;;;;;;;18.11;45.42;99089.70;25230;1313;3052798;-72
2022/09/22 11:38:48;;;;;;;5.70;2.80;;;;;;;17.90;46.27;99091.27;25170;1313;3052604;-69
2022/09/22 11:41:20;;;;;;;3.20;2.30;;;;;;;18.02;45.88;99092.55;25230;1312;3056636;-72
2022/09/22 11:44:16;;;;;;;4.80;2.10;;;;;;;18.19;45.77;99091.84;25249;1312;3026250;-71
2022/09/22 11:47:04;;;;;;;3.10;2.10;;;;;;;18.28;45.63;99089.50;25179;1315;3053021;-70
2022/09/22 11:49:53;;;;;;;3.30;2.20;;;;;;;18.23;45.62;99088.03;25173;1312;3051362;-73
2022/09/22 11:52:44;;;;;;;3.30;2.20;;;;;;;18.11;46.15;99086.16;25321;1313;3069369;-70
2022/09/22 11:55:33;;;;;;;2.00;1.80;;;;;;;18.01;46.19;99083.70;25209;1313;3049345;-73
2022/09/22 11:58:10;;;;;;;3.30;1.80;;;;;;;17.98;46.80;99083.02;25273;1312;3052775;-72
2022/09/22 12:00:54;;;;;;;4.50;1.70;;;;;;;17.86;46.86;99086.95;25193;1313;3052170;-74